Jackson Hole (JAC/KJAC)

Map

Information

Location
Jackson Hole, WY
Local Time
18:18 / 6:18 pm
GMT Time
00:18 / 12:18 am
Gates
A4
No FAA reported delays
METAR KJAC 252351Z 01015G25KT 10SM VCSH BKN060 05/01 A2981
TAF KJAC 252336Z 2600/2624 36011KT P6SM VCSH SCT035 BKN060 FM260100 36006KT P6SM VCSH SCT050 FM261200 20006KT P6SM VCSH BKN030 FM262000 21011KT 3SM -SHSN SCT015 BKN025 OVC035 AMD LTD TO CLD VIS AND WIND